KTCS/TCS METAR and TAF weather

Enter ICAO airport designator
Station Type Date Time Source
KTCS METAR 2024/06/15 22:53 UTC NOAA

KTCS 152253Z AUTO 11006KT 10SM CLR 35/02 A2990 RMK AO2 SLP027 T03500022 $


Station Type Date Time Source
KTCS Decoded METAR 2024/06/15 22:53 UTC NOAA

TRUTH OR CONSEQUENCES MUNI, NM, United States (KTCS) 33-14N 107-16W 1469M
Jun 15, 2024 - 06:53 PM EDT / 2024.06.15 2253 UTC
Wind: from the ESE (110 degrees) at 7 MPH (6 KT):0
Visibility: 10 mile(s):0
Sky conditions: clear
Temperature: 95.0 F (35.0 C)
Dew Point: 36.0 F (2.2 C)
Relative Humidity: 12%
Pressure (altimeter): 29.9 in. Hg (1012 hPa)
ob: KTCS 152253Z AUTO 11006KT 10SM CLR 35/02 A2990 RMK AO2 SLP027 T03500022
cycle: 23

Station Type Date Time Source
KTCS TAF 2024/06/15 18:30 UTC NOAA